createdAt,value
2023-08-07T00:02:16.540Z,3.80
2023-08-07T00:04:50.353Z,6.13
2023-08-07T00:07:25.647Z,3.77
2023-08-07T00:09:58.832Z,2.87
2023-08-07T00:12:31.820Z,3.10
2023-08-07T00:15:05.315Z,3.63
2023-08-07T00:17:38.616Z,5.27
2023-08-07T00:20:14.059Z,3.03
2023-08-07T00:22:47.402Z,6.33
2023-08-07T00:25:21.007Z,2.77
2023-08-07T00:27:54.837Z,2.80
2023-08-07T00:30:27.599Z,2.70
2023-08-07T00:33:00.875Z,3.80
2023-08-07T00:35:34.258Z,3.40
2023-08-07T00:38:07.342Z,3.23
2023-08-07T00:40:44.710Z,3.33
2023-08-07T00:43:17.734Z,4.27
2023-08-07T00:45:52.993Z,2.40
2023-08-07T00:48:26.997Z,3.63
2023-08-07T00:51:00.416Z,5.20
2023-08-07T00:53:34.968Z,2.83
2023-08-07T00:56:08.788Z,4.20
2023-08-07T00:58:42.565Z,4.33
2023-08-07T01:01:17.066Z,4.30
2023-08-07T01:03:50.217Z,3.33
2023-08-07T01:06:23.617Z,2.97
2023-08-07T01:08:56.887Z,3.77
2023-08-07T01:11:37.185Z,3.03
2023-08-07T01:14:20.302Z,3.97
2023-08-07T01:19:31.910Z,3.70
2023-08-07T01:22:12.313Z,5.20
2023-08-07T01:24:48.156Z,5.53
2023-08-07T01:27:39.218Z,3.63
2023-08-07T01:30:20.561Z,3.53
2023-08-07T01:35:32.640Z,5.10
2023-08-07T01:38:06.381Z,3.73
2023-08-07T01:40:41.910Z,2.63
2023-08-07T01:43:15.019Z,4.77
2023-08-07T01:45:48.196Z,5.33
2023-08-07T01:48:22.397Z,3.20
2023-08-07T01:50:57.308Z,2.87
2023-08-07T01:53:30.810Z,4.17
2023-08-07T01:56:04.315Z,3.27
2023-08-07T01:58:37.578Z,4.60
2023-08-07T02:01:11.258Z,4.73
2023-08-07T02:03:44.489Z,2.90
2023-08-07T02:06:17.965Z,2.40
2023-08-07T02:08:52.171Z,2.50
2023-08-07T02:11:26.182Z,3.33
2023-08-07T02:14:00.802Z,2.87
2023-08-07T02:16:34.389Z,3.40
2023-08-07T02:19:07.818Z,2.40
2023-08-07T02:21:42.076Z,1.37
2023-08-07T02:24:15.960Z,2.30
2023-08-07T02:26:49.842Z,1.90
2023-08-07T02:29:23.227Z,3.00
2023-08-07T02:31:57.265Z,1.40
2023-08-07T02:34:30.431Z,1.13
2023-08-07T02:37:05.338Z,2.80
2023-08-07T02:39:39.896Z,3.50
2023-08-07T02:42:13.026Z,2.67
2023-08-07T02:44:46.669Z,1.03
2023-08-07T02:47:20.712Z,2.40
2023-08-07T02:49:54.119Z,2.03
2023-08-07T02:52:27.204Z,3.20
2023-08-07T02:55:00.864Z,2.10
2023-08-07T02:57:34.124Z,1.20
2023-08-07T03:00:11.230Z,2.53
2023-08-07T03:02:44.616Z,1.23
2023-08-07T03:05:18.692Z,1.93
2023-08-07T03:07:51.783Z,3.57
2023-08-07T03:10:26.745Z,1.53
2023-08-07T03:13:00.585Z,2.40
2023-08-07T03:15:33.220Z,1.90
2023-08-07T03:18:07.352Z,3.93
2023-08-07T03:20:42.134Z,1.60
2023-08-07T03:23:15.992Z,2.07
2023-08-07T03:25:49.306Z,3.30
2023-08-07T03:28:23.071Z,1.87
2023-08-07T03:30:56.315Z,1.53
2023-08-07T03:33:30.392Z,2.50
2023-08-07T03:36:04.007Z,1.83
2023-08-07T03:38:37.807Z,2.67
2023-08-07T03:41:11.816Z,1.87
2023-08-07T03:43:46.536Z,1.60
2023-08-07T03:46:19.629Z,1.73
2023-08-07T03:48:53.012Z,1.70
2023-08-07T03:51:26.458Z,2.17
2023-08-07T03:54:00.838Z,2.37
2023-08-07T03:56:37.865Z,2.13
2023-08-07T03:59:11.719Z,2.50
2023-08-07T04:01:44.972Z,2.43
2023-08-07T04:04:18.162Z,2.27
2023-08-07T04:06:51.502Z,4.23
2023-08-07T04:09:25.501Z,3.40
2023-08-07T04:11:59.567Z,3.30
2023-08-07T04:14:32.757Z,2.93
2023-08-07T04:17:06.793Z,3.83
2023-08-07T04:19:40.013Z,5.13
2023-08-07T04:22:14.317Z,5.30
2023-08-07T04:24:47.655Z,4.10
2023-08-07T04:27:21.450Z,3.20
2023-08-07T04:29:54.547Z,3.00
2023-08-07T04:32:28.120Z,3.23
2023-08-07T04:35:02.409Z,3.83
2023-08-07T04:37:35.592Z,4.93
2023-08-07T04:40:12.756Z,4.67
2023-08-07T04:42:46.015Z,4.37
2023-08-07T04:45:20.098Z,4.73
2023-08-07T04:47:53.672Z,4.63
2023-08-07T04:50:27.201Z,4.53
2023-08-07T04:53:01.055Z,4.63
2023-08-07T04:55:34.742Z,9.10
2023-08-07T04:58:07.906Z,3.07
2023-08-07T05:00:40.809Z,4.57
2023-08-07T05:03:14.275Z,3.67
2023-08-07T05:05:48.072Z,3.33
2023-08-07T05:08:21.588Z,4.33
2023-08-07T05:10:55.384Z,4.10
2023-08-07T05:13:29.316Z,6.77
2023-08-07T05:16:02.506Z,5.90
2023-08-07T05:18:35.779Z,5.17
2023-08-07T05:21:10.325Z,4.90
2023-08-07T05:23:43.809Z,5.40
2023-08-07T05:26:19.233Z,5.00
2023-08-07T05:28:52.041Z,6.47
2023-08-07T05:31:26.683Z,6.57
2023-08-07T05:34:02.083Z,5.43
2023-08-07T05:36:36.194Z,4.07
2023-08-07T05:39:10.156Z,3.67
2023-08-07T05:41:43.627Z,3.50
2023-08-07T05:44:17.094Z,4.83
2023-08-07T05:46:49.798Z,5.23
2023-08-07T05:49:25.915Z,3.63
2023-08-07T05:51:59.944Z,3.03
2023-08-07T05:54:33.542Z,4.13
2023-08-07T05:57:08.495Z,6.57
2023-08-07T05:59:42.751Z,4.23
2023-08-07T06:02:16.368Z,4.23
2023-08-07T06:04:50.031Z,4.43
2023-08-07T06:07:23.595Z,3.07
2023-08-07T06:09:57.398Z,2.77
2023-08-07T06:12:31.105Z,2.77
2023-08-07T06:15:04.410Z,2.90
2023-08-07T06:17:37.967Z,7.23
2023-08-07T06:20:15.732Z,7.33
2023-08-07T06:22:49.084Z,3.30
2023-08-07T06:25:22.314Z,3.20
2023-08-07T06:27:56.317Z,4.53
2023-08-07T06:30:29.412Z,3.03
2023-08-07T06:33:02.701Z,2.17
2023-08-07T06:35:43.875Z,2.17
2023-08-07T06:38:17.445Z,4.33
2023-08-07T06:40:51.496Z,1.50
2023-08-07T06:43:24.863Z,2.73
2023-08-07T06:45:59.502Z,6.17
2023-08-07T06:48:32.969Z,4.30
2023-08-07T06:51:06.713Z,2.20
2023-08-07T06:53:39.718Z,4.37
2023-08-07T06:56:14.092Z,4.13
2023-08-07T06:58:47.603Z,3.30
2023-08-07T07:01:21.009Z,1.53
2023-08-07T07:03:54.898Z,2.37
2023-08-07T07:06:28.490Z,4.30
2023-08-07T07:09:01.779Z,4.10
2023-08-07T07:11:36.102Z,2.73
2023-08-07T07:14:09.479Z,4.40
2023-08-07T07:16:43.476Z,1.70
2023-08-07T07:19:17.719Z,5.90
2023-08-07T07:21:51.311Z,1.63
2023-08-07T07:24:24.288Z,5.40
2023-08-07T07:26:57.307Z,6.10
2023-08-07T07:29:30.987Z,3.90
2023-08-07T07:32:04.200Z,3.90
2023-08-07T07:34:38.432Z,3.97
2023-08-07T07:37:12.154Z,1.93
2023-08-07T07:39:45.490Z,1.73
2023-08-07T07:42:18.679Z,1.77
2023-08-07T07:44:52.309Z,1.13
2023-08-07T07:47:25.574Z,2.37
2023-08-07T07:50:10.207Z,1.60
2023-08-07T07:52:44.348Z,5.03
2023-08-07T07:55:17.940Z,2.33
2023-08-07T07:57:51.929Z,1.17
2023-08-07T08:00:28.309Z,3.60
2023-08-07T08:03:02.276Z,4.00
2023-08-07T08:05:36.851Z,1.33
2023-08-07T08:08:10.318Z,1.10
2023-08-07T08:10:43.442Z,1.90
2023-08-07T08:13:16.924Z,1.47
2023-08-07T08:15:50.290Z,2.77
2023-08-07T08:18:23.899Z,2.50
2023-08-07T08:20:58.428Z,1.50
2023-08-07T08:23:31.642Z,1.27
2023-08-07T08:26:06.480Z,1.83
2023-08-07T08:28:40.341Z,0.83
2023-08-07T08:31:13.413Z,2.07
2023-08-07T08:33:46.866Z,3.60
2023-08-07T08:36:20.285Z,1.10
2023-08-07T08:38:54.200Z,2.90
2023-08-07T08:41:28.644Z,1.53
2023-08-07T08:44:02.256Z,2.90
2023-08-07T08:46:37.277Z,4.17
2023-08-07T08:49:12.286Z,1.03
2023-08-07T08:51:46.169Z,1.53
2023-08-07T08:54:19.554Z,1.77
2023-08-07T08:56:53.340Z,1.30
2023-08-07T08:59:27.161Z,2.27
2023-08-07T09:02:00.764Z,3.90
2023-08-07T09:04:35.048Z,0.80
2023-08-07T09:07:08.740Z,6.73
2023-08-07T09:09:43.223Z,1.33
2023-08-07T09:12:23.067Z,1.23
2023-08-07T09:14:59.901Z,0.77
2023-08-07T09:17:34.230Z,0.63
2023-08-07T09:20:12.446Z,1.23
2023-08-07T09:22:46.361Z,1.60
2023-08-07T09:25:32.324Z,1.47
2023-08-07T09:28:08.641Z,0.67
2023-08-07T09:30:45.542Z,2.03
2023-08-07T09:33:26.552Z,1.57
2023-08-07T09:36:04.172Z,2.22
2023-08-07T09:38:37.496Z,1.47
2023-08-07T09:41:10.846Z,2.53
2023-08-07T09:43:44.249Z,1.63
2023-08-07T09:46:20.134Z,1.47
2023-08-07T09:48:53.485Z,1.30
2023-08-07T09:51:27.056Z,0.57
2023-08-07T09:54:02.329Z,0.70
2023-08-07T09:56:37.308Z,2.87
2023-08-07T09:59:11.452Z,1.47
2023-08-07T10:01:45.756Z,0.80
2023-08-07T10:04:19.703Z,1.97
2023-08-07T10:06:53.900Z,1.93
2023-08-07T10:09:29.196Z,1.83
2023-08-07T10:12:04.439Z,2.10
2023-08-07T10:14:37.683Z,2.23
2023-08-07T10:17:12.233Z,1.87
2023-08-07T10:19:46.125Z,1.70
2023-08-07T10:22:21.030Z,1.47
2023-08-07T10:24:55.870Z,2.23
2023-08-07T10:27:31.755Z,1.50
2023-08-07T10:30:09.334Z,1.23
2023-08-07T10:32:43.979Z,1.43
2023-08-07T10:35:27.551Z,2.07
2023-08-07T10:38:10.570Z,2.20
2023-08-07T10:41:04.108Z,1.17
2023-08-07T10:43:41.021Z,1.43
2023-08-07T10:46:15.747Z,1.67
2023-08-07T10:48:58.386Z,1.60
2023-08-07T10:51:34.884Z,1.10
2023-08-07T10:54:08.385Z,1.53
2023-08-07T10:56:42.665Z,1.30
2023-08-07T10:59:16.478Z,2.55
2023-08-07T11:01:56.855Z,1.83
2023-08-07T11:04:31.115Z,1.33
2023-08-07T11:07:05.798Z,0.73
2023-08-07T11:09:39.439Z,1.33
2023-08-07T11:12:13.820Z,1.50
2023-08-07T11:14:47.141Z,2.57
2023-08-07T11:17:21.372Z,0.70
2023-08-07T11:19:55.735Z,0.70
2023-08-07T11:22:29.331Z,0.87
2023-08-07T11:25:03.058Z,1.73
2023-08-07T11:27:36.235Z,3.33
2023-08-07T11:30:15.413Z,2.47
2023-08-07T11:32:49.221Z,2.13
2023-08-07T11:35:22.886Z,3.70
2023-08-07T11:37:56.573Z,1.10
2023-08-07T11:40:30.161Z,3.03
2023-08-07T11:43:04.127Z,1.10
2023-08-07T11:45:37.507Z,2.07
2023-08-07T11:48:12.665Z,2.70
2023-08-07T11:50:47.603Z,2.93
2023-08-07T11:53:20.860Z,0.87
2023-08-07T11:55:58.350Z,0.97
2023-08-07T11:58:36.057Z,1.40
2023-08-07T12:01:12.396Z,1.30
2023-08-07T12:03:53.416Z,1.20
2023-08-07T12:06:27.967Z,1.30
2023-08-07T12:09:02.036Z,2.90
2023-08-07T12:11:35.441Z,0.67
2023-08-07T12:14:08.557Z,2.47
2023-08-07T12:16:41.750Z,2.47
2023-08-07T12:19:16.008Z,0.50
2023-08-07T12:21:49.562Z,1.27
2023-08-07T12:24:24.049Z,1.20
2023-08-07T12:26:57.543Z,0.70
2023-08-07T12:29:31.337Z,0.47
2023-08-07T12:32:04.802Z,3.07
2023-08-07T12:35:15.163Z,2.30
2023-08-07T12:37:32.455Z,1.43
2023-08-07T12:42:43.688Z,2.13
2023-08-07T12:45:17.622Z,0.70
2023-08-07T12:47:51.382Z,1.47
2023-08-07T12:50:24.566Z,4.83
2023-08-07T12:52:58.286Z,1.53
2023-08-07T12:55:32.007Z,3.90
2023-08-07T12:58:05.921Z,1.73
2023-08-07T13:00:39.467Z,2.33
2023-08-07T13:03:13.022Z,1.63
2023-08-07T13:05:46.453Z,1.00
2023-08-07T13:08:19.563Z,2.40
2023-08-07T13:10:55.106Z,0.63
2023-08-07T13:13:29.254Z,3.00
2023-08-07T13:16:02.493Z,1.20
2023-08-07T13:18:35.836Z,1.30
2023-08-07T13:21:10.026Z,1.55
2023-08-07T13:23:43.140Z,4.03
2023-08-07T13:26:17.206Z,2.27
2023-08-07T13:28:50.150Z,1.90
2023-08-07T13:31:23.577Z,2.67
2023-08-07T13:33:56.796Z,2.50
2023-08-07T13:36:30.291Z,4.23
2023-08-07T13:39:03.590Z,3.80
2023-08-07T13:41:37.673Z,2.30
2023-08-07T13:44:14.324Z,2.60
2023-08-07T13:46:49.196Z,2.50
2023-08-07T13:49:23.309Z,0.77
2023-08-07T13:51:57.588Z,2.00
2023-08-07T13:54:30.844Z,1.07
2023-08-07T13:57:04.219Z,5.80
2023-08-07T13:59:37.716Z,1.53
2023-08-07T14:02:11.933Z,1.17
2023-08-07T14:04:46.843Z,1.43
2023-08-07T14:07:20.239Z,0.70
2023-08-07T14:09:54.734Z,3.33
2023-08-07T14:12:28.392Z,3.50
2023-08-07T14:15:01.979Z,2.00
2023-08-07T14:17:35.187Z,2.97
2023-08-07T14:20:12.869Z,0.73
2023-08-07T14:22:46.195Z,1.20
2023-08-07T14:25:22.726Z,1.50
2023-08-07T14:27:56.252Z,1.13
2023-08-07T14:30:30.387Z,0.90
2023-08-07T14:33:03.920Z,2.63
2023-08-07T14:35:37.183Z,0.77
2023-08-07T14:38:10.541Z,0.87
2023-08-07T14:40:44.954Z,2.43
2023-08-07T14:43:18.337Z,1.30
2023-08-07T14:45:51.765Z,0.63
2023-08-07T14:48:25.329Z,1.27
2023-08-07T14:50:59.096Z,1.20
2023-08-07T14:53:32.536Z,3.07
2023-08-07T14:56:06.663Z,1.07
2023-08-07T14:58:40.053Z,0.90
2023-08-07T15:01:13.093Z,1.70
2023-08-07T15:03:47.285Z,1.80
2023-08-07T15:06:20.598Z,0.93
2023-08-07T15:08:54.955Z,1.30
2023-08-07T15:11:28.831Z,1.23
2023-08-07T15:14:05.878Z,0.77
2023-08-07T15:16:40.214Z,0.97
2023-08-07T15:19:14.395Z,1.30
2023-08-07T15:21:47.418Z,1.53
2023-08-07T15:24:21.396Z,1.10
2023-08-07T15:26:54.706Z,1.43
2023-08-07T15:29:27.879Z,0.93
2023-08-07T15:32:01.599Z,1.90
2023-08-07T15:34:35.550Z,0.90
2023-08-07T15:37:09.640Z,1.55
2023-08-07T15:39:44.515Z,0.97
2023-08-07T15:42:17.705Z,1.03
2023-08-07T15:44:51.520Z,0.60
2023-08-07T15:47:24.720Z,3.50
2023-08-07T15:49:58.272Z,1.20
2023-08-07T15:52:31.481Z,2.33
2023-08-07T15:55:05.143Z,1.47
2023-08-07T15:57:38.207Z,4.33
2023-08-07T16:00:16.556Z,1.67
2023-08-07T16:02:49.928Z,2.70
2023-08-07T16:05:24.527Z,2.90
2023-08-07T16:07:57.687Z,1.73
2023-08-07T16:10:31.309Z,1.83
2023-08-07T16:13:04.540Z,1.20
2023-08-07T16:15:38.292Z,2.20
2023-08-07T16:18:12.004Z,0.77
2023-08-07T16:20:45.311Z,0.83
2023-08-07T16:23:19.020Z,1.70
2023-08-07T16:25:52.564Z,2.20
2023-08-07T16:28:26.085Z,1.70
2023-08-07T16:31:00.002Z,2.67
2023-08-07T16:33:32.933Z,2.37
2023-08-07T16:36:07.550Z,1.90
2023-08-07T16:38:40.718Z,1.73
2023-08-07T16:41:14.026Z,1.90
2023-08-07T16:43:48.419Z,1.03
2023-08-07T16:46:21.806Z,2.57
2023-08-07T16:48:55.198Z,2.00
2023-08-07T16:51:29.364Z,3.83
2023-08-07T16:54:03.088Z,2.63
2023-08-07T16:56:36.245Z,3.47
2023-08-07T16:59:09.197Z,4.73
2023-08-07T17:01:42.580Z,3.43
2023-08-07T17:04:15.990Z,4.00
2023-08-07T17:06:50.190Z,3.53
2023-08-07T17:09:24.028Z,4.73
2023-08-07T17:11:57.320Z,3.10
2023-08-07T17:14:30.790Z,2.73
2023-08-07T17:17:04.667Z,4.80
2023-08-07T17:19:37.742Z,5.23
2023-08-07T17:22:10.829Z,6.70
2023-08-07T17:24:44.993Z,9.17
2023-08-07T17:27:18.477Z,7.50
2023-08-07T17:29:52.103Z,6.17
2023-08-07T17:32:25.956Z,2.00
2023-08-07T17:35:01.678Z,4.30
2023-08-07T17:37:35.040Z,3.53
2023-08-07T17:40:10.380Z,5.63
2023-08-07T17:42:43.876Z,5.40
2023-08-07T17:45:18.215Z,10.10
2023-08-07T17:47:51.863Z,4.60
2023-08-07T17:50:25.392Z,2.57
2023-08-07T17:52:58.530Z,2.87
2023-08-07T17:55:32.580Z,1.70
2023-08-07T17:58:05.563Z,3.90
2023-08-07T18:00:39.777Z,4.37
2023-08-07T18:03:15.792Z,2.93
2023-08-07T18:05:50.018Z,2.30
2023-08-07T18:08:23.291Z,5.33
2023-08-07T18:10:56.578Z,4.33
2023-08-07T18:13:30.547Z,4.17
2023-08-07T18:16:04.331Z,4.60
2023-08-07T18:18:37.391Z,7.43
2023-08-07T18:21:10.394Z,6.33
2023-08-07T18:23:44.395Z,5.37
2023-08-07T18:26:17.896Z,4.53
2023-08-07T18:28:51.023Z,7.27
2023-08-07T18:31:26.271Z,8.03
2023-08-07T18:34:00.189Z,7.33
2023-08-07T18:36:34.820Z,9.40
2023-08-07T18:39:08.326Z,8.13
2023-08-07T18:41:42.067Z,8.40
2023-08-07T18:44:15.237Z,12.00
2023-08-07T18:46:48.816Z,14.67
2023-08-07T18:49:22.284Z,9.13
2023-08-07T18:51:55.799Z,9.90
2023-08-07T18:54:28.983Z,11.03
2023-08-07T18:57:05.822Z,11.57
2023-08-07T18:59:40.077Z,9.83
2023-08-07T19:02:13.478Z,9.80
2023-08-07T19:04:46.792Z,8.73
2023-08-07T19:07:20.873Z,9.90
2023-08-07T19:09:54.076Z,6.83
2023-08-07T19:12:27.256Z,9.40
2023-08-07T19:15:00.457Z,6.77
2023-08-07T19:17:35.099Z,7.97
2023-08-07T19:20:10.967Z,7.17
2023-08-07T19:22:44.523Z,10.33
2023-08-07T19:25:18.067Z,7.30
2023-08-07T19:27:51.736Z,6.67
2023-08-07T19:30:26.223Z,5.33
2023-08-07T19:32:59.723Z,2.97
2023-08-07T19:35:35.785Z,3.00
2023-08-07T19:38:09.299Z,5.17
2023-08-07T19:40:45.773Z,5.03
2023-08-07T19:43:19.670Z,3.53
2023-08-07T19:45:52.926Z,3.30
2023-08-07T19:48:27.352Z,3.73
2023-08-07T19:51:01.021Z,1.97
2023-08-07T19:53:35.044Z,3.30
2023-08-07T19:56:09.664Z,3.57
2023-08-07T19:58:42.830Z,3.83
2023-08-07T20:01:16.230Z,2.07
2023-08-07T20:03:49.474Z,5.43
2023-08-07T20:06:23.155Z,6.03
2023-08-07T20:08:57.313Z,6.60
2023-08-07T20:11:37.285Z,6.13
2023-08-07T20:14:10.660Z,2.47
2023-08-07T20:16:43.622Z,6.50
2023-08-07T20:19:16.737Z,2.40
2023-08-07T20:21:51.118Z,4.20
2023-08-07T20:24:25.061Z,3.83
2023-08-07T20:26:58.350Z,4.43
2023-08-07T20:29:31.854Z,3.33
2023-08-07T20:32:05.550Z,2.13
2023-08-07T20:34:39.059Z,2.77
2023-08-07T20:37:13.152Z,1.73
2023-08-07T20:39:46.463Z,4.63
2023-08-07T20:42:20.673Z,3.67
2023-08-07T20:44:54.481Z,4.10
2023-08-07T20:47:27.709Z,4.17
2023-08-07T20:50:01.686Z,4.70
2023-08-07T20:52:35.598Z,4.40
2023-08-07T20:55:10.464Z,4.50
2023-08-07T20:57:44.537Z,7.33
2023-08-07T21:00:20.067Z,6.37
2023-08-07T21:02:53.281Z,4.53
2023-08-07T21:05:27.186Z,3.40
2023-08-07T21:08:01.291Z,4.03
2023-08-07T21:10:34.584Z,4.63
2023-08-07T21:13:08.300Z,4.10
2023-08-07T21:15:43.632Z,2.93
2023-08-07T21:18:16.618Z,3.67
2023-08-07T21:20:50.611Z,2.60
2023-08-07T21:23:23.819Z,4.20
2023-08-07T21:25:57.808Z,3.07
2023-08-07T21:28:31.875Z,5.55
2023-08-07T21:31:06.072Z,6.10
2023-08-07T21:33:40.920Z,4.30
2023-08-07T21:36:14.683Z,3.77
2023-08-07T21:38:47.976Z,4.57
2023-08-07T21:41:21.300Z,3.60
2023-08-07T21:43:55.061Z,3.93
2023-08-07T21:46:28.360Z,5.70
2023-08-07T21:49:03.042Z,3.10
2023-08-07T21:51:37.019Z,3.57
2023-08-07T21:54:10.349Z,3.27
2023-08-07T21:56:44.830Z,4.20
2023-08-07T21:59:18.504Z,5.20
2023-08-07T22:01:51.683Z,2.63
2023-08-07T22:04:25.833Z,4.07
2023-08-07T22:06:59.011Z,2.27
2023-08-07T22:09:32.405Z,3.50
2023-08-07T22:12:06.515Z,3.47
2023-08-07T22:14:39.903Z,3.73
2023-08-07T22:17:13.296Z,3.47
2023-08-07T22:19:59.048Z,5.20
2023-08-07T22:22:38.802Z,5.78
2023-08-07T22:25:13.787Z,3.67
2023-08-07T22:27:46.937Z,4.53
2023-08-07T22:30:21.977Z,4.07
2023-08-07T22:32:55.606Z,4.07
2023-08-07T22:35:29.179Z,4.87
2023-08-07T22:38:03.339Z,3.23
2023-08-07T22:40:36.639Z,5.23
2023-08-07T22:43:11.676Z,3.87
2023-08-07T22:45:50.289Z,4.30
2023-08-07T22:48:23.946Z,5.90
2023-08-07T22:50:57.342Z,3.07
2023-08-07T22:53:30.621Z,4.50
2023-08-07T22:56:04.670Z,4.17
2023-08-07T22:58:37.538Z,4.27
2023-08-07T23:01:12.708Z,5.00
2023-08-07T23:03:46.777Z,3.83
2023-08-07T23:06:20.175Z,4.53
2023-08-07T23:08:53.490Z,2.30
2023-08-07T23:11:27.148Z,2.17
2023-08-07T23:14:00.461Z,5.57
2023-08-07T23:16:33.749Z,7.30
2023-08-07T23:19:06.840Z,4.13
2023-08-07T23:21:40.537Z,4.93
2023-08-07T23:24:14.151Z,5.20
2023-08-07T23:26:47.388Z,4.73
2023-08-07T23:29:20.726Z,6.80
2023-08-07T23:31:54.037Z,3.10
2023-08-07T23:34:27.553Z,4.23
2023-08-07T23:37:01.322Z,4.60
2023-08-07T23:39:34.713Z,4.13
2023-08-07T23:42:08.929Z,4.93
2023-08-07T23:44:42.729Z,4.33
2023-08-07T23:47:15.962Z,6.23
2023-08-07T23:49:49.333Z,4.23
2023-08-07T23:52:22.505Z,4.57
2023-08-07T23:54:55.841Z,4.40
2023-08-07T23:57:29.499Z,5.70
